Flight Track Log - Related Links

Times and Time Zones

All times are in EDT time to prevent confusion due to time zone crossing. See the ERR735 flight status page for this flight to view local times or setup timezone preferences in your user account.

Time Position Orientation Groundspeed Altitude Reporting Facility
EDT Latitude Longitude Course Direction KTS MPH feet Rate Location/Type
Fri 04:24:40 PM 64.7500 -156.0333 87° East 190 219 12,700  Level Anchorage Center
Fri 04:25:40 PM 64.7500 -155.8833 90° East 210 242 13,700 1,050 Climbing Anchorage Center
Fri 04:26:00 PM 64.7500 -156.0134 90° East  Level FlightAware Approximate
Fri 04:26:40 PM 64.7667 -155.7333 75° East 220 253 14,800  Level Anchorage Center
Fri 04:27:00 PM 64.7545 -155.8600 84° East  Level FlightAware Approximate
Fri 04:27:40 PM 64.7667 -155.6000 90° East 210 242 16,000  Level Anchorage Center
Fri 04:28:00 PM 64.7609 -155.7067 84° East  Level FlightAware Approximate
Fri 04:28:40 PM 64.7667 -155.4667 90° East 200 230 17,700  Level Anchorage Center
Fri 04:29:00 PM 64.7670 -155.5534 87° East  Level FlightAware Approximate
Fri 04:29:40 PM 64.7833 -155.3500 71° East 190 219 19,100  Level Anchorage Center
Fri 04:30:40 PM 64.7833 -155.2167 90° East 190 219 20,100 992 Climbing Anchorage Center
Fri 04:31:41 PM 64.7833 -155.0833 90° East 210 242 21,100 1,041 Climbing Anchorage Center
Fri 04:32:41 PM 64.7833 -154.9500 90° East 190 219 22,200 800 Climbing Anchorage Center
Fri 04:33:41 PM 64.7833 -154.8333 90° East 200 230 22,700 400 Climbing Anchorage Center
Fri 04:34:41 PM 64.7833 -154.6833 90° East 220 253 23,000 150 Climbing Anchorage Center
Fri 04:35:41 PM 64.8000 -154.5333 75° East 240 276 23,000  Level Anchorage Center
Fri 04:36:41 PM 64.8000 -154.3500 90° East 260 299 23,000  Level Anchorage Center
Fri 04:37:41 PM 64.8000 -154.2000 90° East 240 276 23,000  Level Anchorage Center
Fri 04:38:41 PM 64.8000 -154.0333 90° East 250 288 23,000  Level Anchorage Center
Fri 04:39:42 PM 64.8167 -153.8500 78° East 260 299 23,000  Level Anchorage Center
Fri 04:40:42 PM 64.8167 -153.7000 90° East 250 288 23,000  Level Anchorage Center
Fri 04:41:41 PM 64.8167 -153.5333 90° East 250 288 23,000  Level Anchorage Center
Fri 04:42:41 PM 64.8167 -153.3833 90° East 250 288 23,000  Level Anchorage Center
Fri 04:43:42 PM 64.8167 -153.2167 90° East 260 299 23,000  Level Anchorage Center
Fri 04:44:42 PM 64.8167 -153.0500 90° East 260 299 23,000  Level Anchorage Center
Fri 04:45:42 PM 64.8333 -152.8833 77° East 240 276 23,000  Level Anchorage Center
Fri 04:46:42 PM 64.8333 -152.7167 90° East 260 299 23,000  Level Anchorage Center
Fri 04:47:42 PM 64.8333 -152.5500 90° East 260 299 23,000  Level Anchorage Center
Fri 04:48:42 PM 64.8333 -152.3833 90° East 250 288 23,000  Level Anchorage Center
Fri 04:49:42 PM 64.8333 -152.2167 90° East 250 288 23,000  Level Anchorage Center
Fri 04:50:42 PM 64.8333 -152.0500 90° East 250 288 23,000  Level Anchorage Center
Fri 04:51:43 PM 64.8333 -151.8833 90° East 270 311 23,000  Level Anchorage Center
Fri 04:52:43 PM 64.8333 -151.7167 90° East 260 299 23,000  Level Anchorage Center
Fri 04:53:43 PM 64.8333 -151.5500 90° East 250 288 23,000  Level Anchorage Center
Fri 04:54:43 PM 64.8333 -151.3833 90° East 260 299 23,000  Level Anchorage Center
Fri 04:55:43 PM 64.8333 -151.2167 90° East 260 299 23,000  Level Anchorage Center
Fri 04:56:43 PM 64.8333 -151.0500 90° East 250 288 23,000  Level Anchorage Center
Fri 04:57:43 PM 64.8333 -150.8833 90° East 250 288 23,000  Level Anchorage Center
Fri 04:58:43 PM 64.8333 -150.7000 90° East 260 299 23,000  Level Anchorage Center
Fri 04:59:43 PM 64.8333 -150.5333 90° East 260 299 23,000 -50 Level Anchorage Center
Fri 05:00:44 PM 64.8333 -150.3667 90° East 250 288 22,900 -300 Descending Anchorage Center
Fri 05:01:43 PM 64.8333 -150.2000 90° East 260 299 22,400 -706 Descending Anchorage Center
Fri 05:02:43 PM 64.8167 -150.0167 102° East 280 322 21,500 -893 Descending Anchorage Center
Fri 05:03:44 PM 64.8167 -149.8167 90° East 290 334 20,600 -1,041 Descending Anchorage Center
Fri 05:04:44 PM 64.8167 -149.6333 90° East 290 334 19,400 -1,700 Descending Anchorage Center
Fri 05:05:44 PM 64.8167 -149.4333 90° East 300 345 17,200 -2,200 Descending Anchorage Center
Fri 05:07:00 PM 64.8158 -149.2379 94° East  Level FlightAware Approximate
Fri 05:14:00 PM 64.8000 -148.1595 90° East  Level FlightAware Approximate
Fri 05:15:00 PM 64.8000 -148.0053 90° East  Level FlightAware Approximate
Fri 05:16:00 PM 64.8000 -147.8511 90° East  Level FlightAware Approximate
Fri 05:17:00 PM 64.8000 -147.8500 90° East  Level FlightAware Approximate
Fri 05:18:00 PM 64.8151 -147.8564 90° East  Level Estimated
Fri 05:19:00 PM 64.8151 -147.8564 90° East  Level Estimated
Fri 05:20:00 PM 64.8151 -147.8564 90° East  Level Estimated
Fri 05:21:00 PM 64.8151 -147.8564 90° East  Level Estimated
Fri 05:22:00 PM 64.8151 -147.8564 90° East  Level Estimated
Fri 05:23:00 PM 64.8151 -147.8564 90° East  Level Estimated
Fri 05:24:00 PM 64.8151 -147.8564 90° East  Level Estimated
Fri 05:25:00 PM 64.8151 -147.8564 90° East  Level Estimated
Fri 05:26:00 PM 64.8151 -147.8564 90° East  Level Estimated
Fri 05:27:00 PM 64.8151 -147.8564 90° East  Level Estimated
Fri 05:28:00 PM 64.8151 -147.8564 90° East  Level Estimated
Fri 05:29:00 PM 64.8151 -147.8564 90° East  Level Estimated
Fri 05:30:00 PM 64.8151 -147.8564 90° East  Level Estimated
Fri 05:31:00 PM 64.8151 -147.8564 90° East  Level Estimated
Fri 05:32:00 PM 64.8151 -147.8564 90° East  Level Estimated
Fri 05:33:00 PM 64.8151 -147.8564 90° East  Level Estimated

Login

Don't have an account? Register now (free) for customized features, flight alerts, and more!